createdAt,value
2022-09-12T00:00:23.022Z,2.05
2022-09-12T00:05:16.393Z,1.90
2022-09-12T00:10:11.344Z,2.00
2022-09-12T00:15:05.552Z,2.20
2022-09-12T00:19:59.060Z,2.10
2022-09-12T00:24:52.290Z,3.13
2022-09-12T00:29:46.980Z,2.35
2022-09-12T00:34:40.265Z,2.25
2022-09-12T00:39:33.538Z,2.22
2022-09-12T00:44:51.703Z,1.80
2022-09-12T00:49:50.927Z,1.90
2022-09-12T00:54:51.133Z,1.80
2022-09-12T00:59:51.645Z,1.88
2022-09-12T01:04:47.631Z,1.90
2022-09-12T01:09:43.386Z,2.08
2022-09-12T01:14:37.050Z,1.75
2022-09-12T01:20:11.283Z,1.90
2022-09-12T01:25:21.571Z,1.73
2022-09-12T01:30:31.262Z,2.20
2022-09-12T01:35:33.616Z,1.83
2022-09-12T01:40:36.173Z,1.90
2022-09-12T01:45:40.356Z,2.35
2022-09-12T01:50:41.212Z,2.30
2022-09-12T01:55:43.190Z,2.30
2022-09-12T02:00:48.147Z,2.00
2022-09-12T02:05:48.462Z,1.90
2022-09-12T02:10:50.668Z,2.03
2022-09-12T02:15:50.571Z,2.08
2022-09-12T02:20:48.862Z,1.97
2022-09-12T02:25:47.462Z,1.90
2022-09-12T02:30:54.179Z,1.77
2022-09-12T02:35:55.146Z,2.30
2022-09-12T02:40:48.569Z,1.90
2022-09-12T02:45:42.255Z,2.00
2022-09-12T02:50:38.449Z,1.90
2022-09-12T02:55:33.338Z,1.90
2022-09-12T03:00:28.327Z,1.90
2022-09-12T03:05:30.095Z,2.30
2022-09-12T03:10:34.118Z,2.55
2022-09-12T03:15:49.776Z,2.45
2022-09-12T03:20:54.694Z,1.93
2022-09-12T03:25:57.183Z,2.15
2022-09-12T03:30:54.280Z,2.10
2022-09-12T03:35:49.666Z,2.30
2022-09-12T03:40:43.139Z,2.07
2022-09-12T03:45:38.479Z,2.30
2022-09-12T03:50:31.820Z,1.80
2022-09-12T03:55:25.253Z,1.90
2022-09-12T04:00:19.960Z,2.47
2022-09-12T04:05:14.903Z,2.50
2022-09-12T04:10:09.773Z,2.28
2022-09-12T04:15:03.119Z,2.13
2022-09-12T04:19:56.412Z,2.20
2022-09-12T04:24:50.976Z,2.10
2022-09-12T04:29:44.299Z,2.40
2022-09-12T04:34:37.579Z,2.30
2022-09-12T04:39:32.798Z,2.30
2022-09-12T04:44:27.435Z,2.40
2022-09-12T04:49:20.825Z,2.50
2022-09-12T04:54:17.857Z,2.90
2022-09-12T04:59:14.317Z,4.80
2022-09-12T05:04:10.952Z,4.97
2022-09-12T05:09:07.559Z,4.90
2022-09-12T05:14:01.318Z,5.43
2022-09-12T05:18:54.867Z,4.93
2022-09-12T05:23:54.102Z,5.43
2022-09-12T05:28:48.398Z,5.50
2022-09-12T05:33:44.202Z,6.03
2022-09-12T05:38:38.553Z,6.43
2022-09-12T05:43:33.429Z,6.43
2022-09-12T05:48:26.740Z,6.60
2022-09-12T05:53:20.567Z,5.53
2022-09-12T05:58:13.790Z,5.37
2022-09-12T06:03:08.392Z,5.72
2022-09-12T06:08:01.619Z,6.03
2022-09-12T06:12:54.818Z,6.38
2022-09-12T06:17:51.457Z,5.70
2022-09-12T06:22:48.018Z,5.63
2022-09-12T06:27:41.282Z,5.40
2022-09-12T06:32:34.879Z,5.13
2022-09-12T06:37:28.521Z,4.75
2022-09-12T06:42:23.283Z,4.75
2022-09-12T06:47:16.512Z,4.65
2022-09-12T06:52:09.734Z,4.85
2022-09-12T06:57:03.130Z,4.07
2022-09-12T07:02:03.181Z,5.10
2022-09-12T07:06:56.674Z,4.40
2022-09-12T07:11:49.992Z,4.90
2022-09-12T07:16:44.216Z,3.85
2022-09-12T07:21:40.865Z,4.35
2022-09-12T07:26:34.197Z,5.05
2022-09-12T07:31:29.271Z,3.97
2022-09-12T07:36:25.737Z,4.00
2022-09-12T07:41:23.319Z,3.50
2022-09-12T07:46:16.726Z,3.70
2022-09-12T07:51:13.289Z,3.92
2022-09-12T07:56:10.368Z,3.20
2022-09-12T08:01:06.249Z,3.88
2022-09-12T08:06:05.940Z,3.35
2022-09-12T08:10:59.936Z,3.22
2022-09-12T08:15:53.206Z,2.90
2022-09-12T08:20:48.452Z,2.90
2022-09-12T08:25:41.679Z,2.72
2022-09-12T08:30:35.268Z,3.20
2022-09-12T08:35:28.595Z,3.17
2022-09-12T08:40:23.203Z,2.90
2022-09-12T08:45:26.163Z,3.03
2022-09-12T08:50:23.263Z,2.22
2022-09-12T08:55:33.230Z,2.17
2022-09-12T09:00:38.239Z,2.38
2022-09-12T09:05:48.981Z,2.17
2022-09-12T09:10:53.133Z,2.15
2022-09-12T09:16:05.826Z,2.05
2022-09-12T09:21:06.539Z,1.67
2022-09-12T09:26:08.234Z,2.22
2022-09-12T09:31:01.735Z,2.00
2022-09-12T09:36:08.688Z,1.75
2022-09-12T09:41:40.944Z,1.80
2022-09-12T09:46:35.138Z,1.75
2022-09-12T09:51:34.447Z,1.90
2022-09-12T09:56:36.211Z,1.67
2022-09-12T10:01:33.465Z,1.80
2022-09-12T10:06:34.460Z,1.90
2022-09-12T10:11:33.593Z,1.63
2022-09-12T10:16:29.834Z,1.42
2022-09-12T10:21:33.440Z,1.98
2022-09-12T10:26:28.984Z,2.10
2022-09-12T10:31:30.253Z,2.25
2022-09-12T10:36:27.264Z,1.50
2022-09-12T10:41:21.866Z,1.60
2022-09-12T10:46:30.627Z,1.52
2022-09-12T10:51:29.956Z,1.60
2022-09-12T10:56:28.019Z,1.70
2022-09-12T11:01:41.432Z,1.50
2022-09-12T11:06:52.763Z,1.90
2022-09-12T11:12:04.766Z,1.55
2022-09-12T11:17:14.426Z,1.60
2022-09-12T11:22:42.069Z,1.45
2022-09-12T11:27:56.180Z,1.70
2022-09-12T11:33:25.334Z,1.50
2022-09-12T11:39:03.496Z,1.52
2022-09-12T11:44:10.957Z,1.50
2022-09-12T11:49:20.800Z,1.40
2022-09-12T11:54:25.914Z,1.75
2022-09-12T11:59:37.012Z,1.45
2022-09-12T12:04:43.239Z,1.20
2022-09-12T12:09:52.147Z,1.70
2022-09-12T12:14:57.614Z,1.55
2022-09-12T12:20:08.575Z,1.48
2022-09-12T12:25:29.638Z,1.58
2022-09-12T12:31:03.325Z,1.30
2022-09-12T12:36:09.548Z,1.50
2022-09-12T12:41:44.663Z,1.27
2022-09-12T12:46:40.001Z,1.40
2022-09-12T12:52:01.529Z,1.27
2022-09-12T12:57:17.524Z,1.20
2022-09-12T13:02:30.921Z,1.52
2022-09-12T13:07:37.329Z,1.15
2022-09-12T13:12:36.395Z,1.50
2022-09-12T13:17:40.175Z,1.67
2022-09-12T13:22:44.755Z,1.25
2022-09-12T13:27:38.307Z,1.20
2022-09-12T13:32:32.172Z,1.35
2022-09-12T13:37:56.119Z,1.65
2022-09-12T13:42:50.645Z,1.25
2022-09-12T13:47:46.355Z,1.00
2022-09-12T13:53:12.383Z,1.00
2022-09-12T13:58:36.924Z,0.70
2022-09-12T14:03:51.009Z,0.90
2022-09-12T14:08:51.656Z,0.98
2022-09-12T14:13:46.079Z,0.93
2022-09-12T14:18:45.103Z,1.00
2022-09-12T14:23:43.727Z,0.80
2022-09-12T14:28:47.380Z,0.85
2022-09-12T14:33:51.058Z,1.02
2022-09-12T14:38:48.070Z,0.95
2022-09-12T14:43:54.182Z,1.35
2022-09-12T14:48:54.265Z,0.88
2022-09-12T14:53:50.483Z,0.82
2022-09-12T14:58:45.099Z,0.95
2022-09-12T15:03:53.365Z,0.80
2022-09-12T15:08:47.250Z,1.30
2022-09-12T15:13:43.168Z,1.25
2022-09-12T15:18:38.143Z,1.10
2022-09-12T15:23:41.320Z,1.08
2022-09-12T15:28:51.942Z,1.20
2022-09-12T15:33:46.682Z,1.30
2022-09-12T15:38:40.035Z,1.15
2022-09-12T15:43:33.271Z,1.10
2022-09-12T15:48:26.493Z,1.20
2022-09-12T15:53:21.296Z,1.00
2022-09-12T15:58:14.613Z,1.27
2022-09-12T16:03:08.439Z,0.90
2022-09-12T16:08:01.827Z,1.10
2022-09-12T16:12:56.792Z,0.90
2022-09-12T16:17:50.719Z,1.20
2022-09-12T16:22:44.574Z,1.10
2022-09-12T16:27:38.746Z,1.00
2022-09-12T16:32:33.524Z,1.10
2022-09-12T16:37:26.894Z,1.00
2022-09-12T16:42:20.253Z,1.05
2022-09-12T16:47:14.112Z,1.13
2022-09-12T16:52:09.312Z,1.30
2022-09-12T16:57:02.651Z,1.13
2022-09-12T17:01:55.997Z,1.42
2022-09-12T17:06:49.491Z,1.25
2022-09-12T17:11:44.711Z,1.42
2022-09-12T17:16:41.177Z,1.33
2022-09-12T17:21:35.354Z,1.55
2022-09-12T17:26:29.015Z,1.63
2022-09-12T17:31:23.710Z,1.33
2022-09-12T17:36:18.973Z,1.70
2022-09-12T17:41:17.515Z,2.05
2022-09-12T17:46:11.187Z,1.35
2022-09-12T17:51:10.765Z,1.40
2022-09-12T17:56:05.592Z,2.00
2022-09-12T18:01:20.782Z,1.80
2022-09-12T18:06:16.033Z,1.83
2022-09-12T18:11:10.014Z,1.83
2022-09-12T18:16:09.690Z,1.83
2022-09-12T18:21:05.695Z,1.70
2022-09-12T18:26:02.186Z,1.80
2022-09-12T18:30:58.602Z,1.90
2022-09-12T18:35:52.112Z,1.65
2022-09-12T18:40:45.619Z,1.90
2022-09-12T18:45:40.314Z,2.05
2022-09-12T18:50:33.819Z,7.00
2022-09-12T18:55:27.147Z,2.83
2022-09-12T19:00:20.554Z,2.20
2022-09-12T19:05:15.212Z,1.83
2022-09-12T19:10:10.043Z,1.92
2022-09-12T19:15:03.981Z,2.10
2022-09-12T19:19:57.259Z,2.42
2022-09-12T19:24:51.924Z,2.80
2022-09-12T19:29:45.171Z,2.92
2022-09-12T19:34:38.428Z,4.05
2022-09-12T19:39:31.800Z,5.40
2022-09-12T19:44:27.614Z,4.28
2022-09-12T19:49:20.951Z,3.45
2022-09-12T19:54:14.232Z,3.60
2022-09-12T19:59:07.521Z,3.58
2022-09-12T20:04:02.771Z,3.88
2022-09-12T20:08:57.081Z,3.03
2022-09-12T20:13:50.983Z,2.92
2022-09-12T20:18:45.124Z,3.03
2022-09-12T20:23:40.864Z,2.70
2022-09-12T20:28:34.444Z,2.20
2022-09-12T20:33:27.696Z,2.42
2022-09-12T20:38:20.889Z,1.88
2022-09-12T20:43:15.454Z,2.08
2022-09-12T20:48:08.712Z,2.13
2022-09-12T20:53:02.022Z,2.28
2022-09-12T20:58:14.681Z,2.55
2022-09-12T21:03:08.339Z,2.30
2022-09-12T21:08:02.280Z,2.08
2022-09-12T21:12:55.560Z,2.10
2022-09-12T21:17:50.266Z,1.70
2022-09-12T21:22:43.483Z,2.20
2022-09-12T21:27:36.704Z,4.55
2022-09-12T21:32:34.528Z,4.22
2022-09-12T21:37:29.360Z,5.57
2022-09-12T21:42:22.853Z,6.28
2022-09-12T21:47:16.071Z,6.32
2022-09-12T21:52:09.847Z,5.55
2022-09-12T21:57:04.735Z,5.25
2022-09-12T22:01:59.069Z,4.07
2022-09-12T22:06:53.609Z,3.38
2022-09-12T22:11:47.106Z,3.40
2022-09-12T22:16:41.741Z,3.90
2022-09-12T22:21:55.086Z,3.10
2022-09-12T22:26:48.292Z,2.97
2022-09-12T22:31:42.965Z,2.40
2022-09-12T22:36:38.934Z,2.45
2022-09-12T22:41:32.842Z,2.17
2022-09-12T22:46:26.911Z,2.10
2022-09-12T22:51:21.520Z,1.73
2022-09-12T22:56:14.830Z,2.22
2022-09-12T23:01:10.012Z,1.90
2022-09-12T23:06:03.577Z,1.60
2022-09-12T23:11:04.583Z,2.00
2022-09-12T23:16:01.542Z,1.50
2022-09-12T23:21:00.216Z,2.10
2022-09-12T23:26:05.708Z,1.80
2022-09-12T23:31:00.216Z,1.90
2022-09-12T23:35:53.603Z,1.80
2022-09-12T23:40:46.961Z,1.88
2022-09-12T23:45:41.651Z,1.85
2022-09-12T23:50:34.893Z,1.77
2022-09-12T23:55:28.194Z,1.65
